sensor_id;sensor_type;location;lat;lon;timestamp;temperature;humidity
62904;DHT22;49000;50.698;13.322;2023-01-01T00:00:40;13.70;42.70
62904;DHT22;49000;50.698;13.322;2023-01-01T00:03:05;13.70;41.30
62904;DHT22;49000;50.698;13.322;2023-01-01T00:05:30;13.60;42.50
62904;DHT22;49000;50.698;13.322;2023-01-01T00:07:56;13.50;42.60
62904;DHT22;49000;50.698;13.322;2023-01-01T00:10:21;13.50;43.10
62904;DHT22;49000;50.698;13.322;2023-01-01T00:12:54;13.60;41.40
62904;DHT22;49000;50.698;13.322;2023-01-01T00:15:19;13.60;41.80
62904;DHT22;49000;50.698;13.322;2023-01-01T00:17:45;13.50;40.90
62904;DHT22;49000;50.698;13.322;2023-01-01T00:20:10;13.50;40.80
62904;DHT22;49000;50.698;13.322;2023-01-01T00:22:36;13.50;41.20
62904;DHT22;49000;50.698;13.322;2023-01-01T00:25:02;13.50;40.00
62904;DHT22;49000;50.698;13.322;2023-01-01T00:27:27;13.50;40.90
62904;DHT22;49000;50.698;13.322;2023-01-01T00:29:53;13.50;41.10
62904;DHT22;49000;50.698;13.322;2023-01-01T00:32:18;13.40;41.70
62904;DHT22;49000;50.698;13.322;2023-01-01T00:34:44;13.40;42.20
62904;DHT22;49000;50.698;13.322;2023-01-01T00:37:09;13.40;40.70
62904;DHT22;49000;50.698;13.322;2023-01-01T00:39:35;13.50;40.70
62904;DHT22;49000;50.698;13.322;2023-01-01T00:42:01;13.50;41.10
62904;DHT22;49000;50.698;13.322;2023-01-01T00:44:26;13.50;40.50
62904;DHT22;49000;50.698;13.322;2023-01-01T00:46:52;13.60;40.60
62904;DHT22;49000;50.698;13.322;2023-01-01T00:49:17;13.40;41.40
62904;DHT22;49000;50.698;13.322;2023-01-01T00:51:43;13.40;41.70
62904;DHT22;49000;50.698;13.322;2023-01-01T00:54:08;13.30;41.50
62904;DHT22;49000;50.698;13.322;2023-01-01T00:56:34;13.30;41.90
62904;DHT22;49000;50.698;13.322;2023-01-01T00:58:59;13.30;42.30
62904;DHT22;49000;50.698;13.322;2023-01-01T01:01:25;13.30;42.30
62904;DHT22;49000;50.698;13.322;2023-01-01T01:03:51;13.30;41.90
62904;DHT22;49000;50.698;13.322;2023-01-01T01:06:17;13.30;42.20
62904;DHT22;49000;50.698;13.322;2023-01-01T01:08:44;13.20;42.20
62904;DHT22;49000;50.698;13.322;2023-01-01T01:11:16;13.20;43.10
62904;DHT22;49000;50.698;13.322;2023-01-01T01:13:43;13.20;41.70
62904;DHT22;49000;50.698;13.322;2023-01-01T01:16:30;13.20;42.80
62904;DHT22;49000;50.698;13.322;2023-01-01T01:18:59;13.10;42.50
62904;DHT22;49000;50.698;13.322;2023-01-01T01:21:27;13.10;42.70
62904;DHT22;49000;50.698;13.322;2023-01-01T01:23:53;13.10;43.00
62904;DHT22;49000;50.698;13.322;2023-01-01T01:26:24;12.90;43.50
62904;DHT22;49000;50.698;13.322;2023-01-01T01:28:50;12.90;43.20
62904;DHT22;49000;50.698;13.322;2023-01-01T01:31:17;12.90;43.50
62904;DHT22;49000;50.698;13.322;2023-01-01T01:33:44;12.90;43.70
62904;DHT22;49000;50.698;13.322;2023-01-01T01:36:10;12.80;43.60
62904;DHT22;49000;50.698;13.322;2023-01-01T01:38:36;12.80;44.40
62904;DHT22;49000;50.698;13.322;2023-01-01T01:41:02;12.80;44.10
62904;DHT22;49000;50.698;13.322;2023-01-01T01:46:12;12.80;43.30
62904;DHT22;49000;50.698;13.322;2023-01-01T01:48:48;12.70;43.60
62904;DHT22;49000;50.698;13.322;2023-01-01T01:51:17;12.70;43.40
62904;DHT22;49000;50.698;13.322;2023-01-01T01:53:48;12.70;43.50
62904;DHT22;49000;50.698;13.322;2023-01-01T01:56:24;12.60;43.70
62904;DHT22;49000;50.698;13.322;2023-01-01T01:58:51;12.50;43.70
62904;DHT22;49000;50.698;13.322;2023-01-01T02:01:17;12.50;42.70
62904;DHT22;49000;50.698;13.322;2023-01-01T02:03:56;12.50;42.60
62904;DHT22;49000;50.698;13.322;2023-01-01T02:06:22;12.50;42.50
62904;DHT22;49000;50.698;13.322;2023-01-01T02:08:49;12.40;42.70
62904;DHT22;49000;50.698;13.322;2023-01-01T02:11:15;12.30;43.30
62904;DHT22;49000;50.698;13.322;2023-01-01T02:13:40;12.30;42.50
62904;DHT22;49000;50.698;13.322;2023-01-01T02:16:36;12.30;42.50
62904;DHT22;49000;50.698;13.322;2023-01-01T02:22:13;12.20;41.80
62904;DHT22;49000;50.698;13.322;2023-01-01T02:25:20;12.20;42.20
62904;DHT22;49000;50.698;13.322;2023-01-01T02:28:08;12.10;41.40
62904;DHT22;49000;50.698;13.322;2023-01-01T02:30:38;12.10;41.90
62904;DHT22;49000;50.698;13.322;2023-01-01T02:33:12;12.00;41.40
62904;DHT22;49000;50.698;13.322;2023-01-01T02:35:44;12.00;41.20
62904;DHT22;49000;50.698;13.322;2023-01-01T02:38:36;11.90;41.40
62904;DHT22;49000;50.698;13.322;2023-01-01T02:41:08;11.90;41.60
62904;DHT22;49000;50.698;13.322;2023-01-01T02:43:37;11.90;41.00
62904;DHT22;49000;50.698;13.322;2023-01-01T02:46:07;12.00;39.40
62904;DHT22;49000;50.698;13.322;2023-01-01T02:48:43;12.00;40.00
62904;DHT22;49000;50.698;13.322;2023-01-01T02:59:17;12.00;40.10
62904;DHT22;49000;50.698;13.322;2023-01-01T03:02:22;11.90;41.10
62904;DHT22;49000;50.698;13.322;2023-01-01T03:05:03;11.80;41.90
62904;DHT22;49000;50.698;13.322;2023-01-01T03:08:05;11.70;41.60
62904;DHT22;49000;50.698;13.322;2023-01-01T03:10:49;11.70;41.20
62904;DHT22;49000;50.698;13.322;2023-01-01T03:13:22;11.80;41.40
62904;DHT22;49000;50.698;13.322;2023-01-01T03:16:02;11.70;41.60
62904;DHT22;49000;50.698;13.322;2023-01-01T03:18:36;11.50;42.20
62904;DHT22;49000;50.698;13.322;2023-01-01T03:21:04;11.50;42.10
62904;DHT22;49000;50.698;13.322;2023-01-01T03:23:37;11.50;41.90
62904;DHT22;49000;50.698;13.322;2023-01-01T03:26:07;11.40;42.40
62904;DHT22;49000;50.698;13.322;2023-01-01T03:28:45;11.30;43.90
62904;DHT22;49000;50.698;13.322;2023-01-01T03:31:14;11.20;44.40
62904;DHT22;49000;50.698;13.322;2023-01-01T03:33:45;11.00;45.40
62904;DHT22;49000;50.698;13.322;2023-01-01T03:36:19;10.90;45.00
62904;DHT22;49000;50.698;13.322;2023-01-01T03:39:00;10.80;46.60
62904;DHT22;49000;50.698;13.322;2023-01-01T03:44:10;10.60;47.40
62904;DHT22;49000;50.698;13.322;2023-01-01T03:46:36;10.60;48.00
62904;DHT22;49000;50.698;13.322;2023-01-01T03:49:05;10.60;47.50
62904;DHT22;49000;50.698;13.322;2023-01-01T04:00:18;10.60;47.20
62904;DHT22;49000;50.698;13.322;2023-01-01T04:05:41;10.70;45.60
62904;DHT22;49000;50.698;13.322;2023-01-01T04:08:07;10.80;43.60
62904;DHT22;49000;50.698;13.322;2023-01-01T04:10:36;10.90;43.40
62904;DHT22;49000;50.698;13.322;2023-01-01T04:13:04;11.00;43.80
62904;DHT22;49000;50.698;13.322;2023-01-01T04:15:31;11.00;43.20
62904;DHT22;49000;50.698;13.322;2023-01-01T04:17:58;10.90;43.40
62904;DHT22;49000;50.698;13.322;2023-01-01T04:20:23;10.80;44.40
62904;DHT22;49000;50.698;13.322;2023-01-01T04:22:49;10.60;43.90
62904;DHT22;49000;50.698;13.322;2023-01-01T04:25:15;10.60;44.60
62904;DHT22;49000;50.698;13.322;2023-01-01T04:27:42;10.50;45.20
62904;DHT22;49000;50.698;13.322;2023-01-01T04:30:10;10.50;45.10
62904;DHT22;49000;50.698;13.322;2023-01-01T04:32:37;10.60;43.70
62904;DHT22;49000;50.698;13.322;2023-01-01T04:35:03;10.60;44.00
62904;DHT22;49000;50.698;13.322;2023-01-01T04:37:29;10.50;44.20
62904;DHT22;49000;50.698;13.322;2023-01-01T04:39:55;10.50;43.60
62904;DHT22;49000;50.698;13.322;2023-01-01T04:42:20;10.30;44.90
62904;DHT22;49000;50.698;13.322;2023-01-01T04:44:45;10.20;45.20
62904;DHT22;49000;50.698;13.322;2023-01-01T04:47:11;10.10;46.60
62904;DHT22;49000;50.698;13.322;2023-01-01T04:49:36;10.00;47.60
62904;DHT22;49000;50.698;13.322;2023-01-01T04:52:03;10.10;45.90
62904;DHT22;49000;50.698;13.322;2023-01-01T04:54:28;10.20;44.50
62904;DHT22;49000;50.698;13.322;2023-01-01T04:56:53;10.30;44.60
62904;DHT22;49000;50.698;13.322;2023-01-01T04:59:19;10.30;45.00
62904;DHT22;49000;50.698;13.322;2023-01-01T05:01:45;10.20;45.00
62904;DHT22;49000;50.698;13.322;2023-01-01T05:04:13;10.20;45.20
62904;DHT22;49000;50.698;13.322;2023-01-01T05:06:38;10.30;45.20
62904;DHT22;49000;50.698;13.322;2023-01-01T05:09:04;10.30;44.80
62904;DHT22;49000;50.698;13.322;2023-01-01T05:11:30;10.50;44.40
62904;DHT22;49000;50.698;13.322;2023-01-01T05:13:58;10.60;42.60
62904;DHT22;49000;50.698;13.322;2023-01-01T05:16:26;10.60;43.60
62904;DHT22;49000;50.698;13.322;2023-01-01T05:18:53;10.50;43.90
62904;DHT22;49000;50.698;13.322;2023-01-01T05:21:27;10.40;45.10
62904;DHT22;49000;50.698;13.322;2023-01-01T05:23:54;10.60;45.00
62904;DHT22;49000;50.698;13.322;2023-01-01T05:26:23;10.60;44.40
62904;DHT22;49000;50.698;13.322;2023-01-01T05:28:48;10.80;44.40
62904;DHT22;49000;50.698;13.322;2023-01-01T05:31:19;10.70;43.90
62904;DHT22;49000;50.698;13.322;2023-01-01T05:33:45;10.70;44.60
62904;DHT22;49000;50.698;13.322;2023-01-01T05:36:19;10.70;44.30
62904;DHT22;49000;50.698;13.322;2023-01-01T05:38:46;10.60;43.50
62904;DHT22;49000;50.698;13.322;2023-01-01T05:41:13;10.60;43.90
62904;DHT22;49000;50.698;13.322;2023-01-01T05:43:39;10.50;44.50
62904;DHT22;49000;50.698;13.322;2023-01-01T05:46:06;10.50;44.90
62904;DHT22;49000;50.698;13.322;2023-01-01T05:48:33;10.70;44.60
62904;DHT22;49000;50.698;13.322;2023-01-01T05:51:07;10.70;44.60
62904;DHT22;49000;50.698;13.322;2023-01-01T05:53:33;10.60;44.50
62904;DHT22;49000;50.698;13.322;2023-01-01T05:55:59;10.50;45.20
62904;DHT22;49000;50.698;13.322;2023-01-01T05:58:26;10.30;45.60
62904;DHT22;49000;50.698;13.322;2023-01-01T06:00:52;10.20;43.30
62904;DHT22;49000;50.698;13.322;2023-01-01T06:03:18;10.10;45.00
62904;DHT22;49000;50.698;13.322;2023-01-01T06:05:44;10.20;46.70
62904;DHT22;49000;50.698;13.322;2023-01-01T06:08:09;10.30;45.20
62904;DHT22;49000;50.698;13.322;2023-01-01T06:10:35;10.40;44.90
62904;DHT22;49000;50.698;13.322;2023-01-01T06:13:00;10.60;43.40
62904;DHT22;49000;50.698;13.322;2023-01-01T06:15:26;10.90;44.80
62904;DHT22;49000;50.698;13.322;2023-01-01T06:17:52;11.00;43.10
62904;DHT22;49000;50.698;13.322;2023-01-01T06:20:17;11.00;44.00
62904;DHT22;49000;50.698;13.322;2023-01-01T06:22:43;11.00;44.90
62904;DHT22;49000;50.698;13.322;2023-01-01T06:25:09;10.90;45.10
62904;DHT22;49000;50.698;13.322;2023-01-01T06:27:35;10.90;44.60
62904;DHT22;49000;50.698;13.322;2023-01-01T06:30:04;10.80;44.60
62904;DHT22;49000;50.698;13.322;2023-01-01T06:32:30;10.90;45.00
62904;DHT22;49000;50.698;13.322;2023-01-01T06:34:56;10.80;46.00
62904;DHT22;49000;50.698;13.322;2023-01-01T06:37:21;10.90;45.30
62904;DHT22;49000;50.698;13.322;2023-01-01T06:39:47;10.90;46.70
62904;DHT22;49000;50.698;13.322;2023-01-01T06:42:12;10.90;45.40
62904;DHT22;49000;50.698;13.322;2023-01-01T06:44:38;10.90;45.30
62904;DHT22;49000;50.698;13.322;2023-01-01T06:47:03;10.80;44.60
62904;DHT22;49000;50.698;13.322;2023-01-01T06:49:29;10.90;45.00
62904;DHT22;49000;50.698;13.322;2023-01-01T06:51:54;10.80;45.00
62904;DHT22;49000;50.698;13.322;2023-01-01T06:54:20;10.70;45.80
62904;DHT22;49000;50.698;13.322;2023-01-01T06:56:45;10.60;46.00
62904;DHT22;49000;50.698;13.322;2023-01-01T06:59:11;10.80;46.00
62904;DHT22;49000;50.698;13.322;2023-01-01T07:01:37;10.70;44.70
62904;DHT22;49000;50.698;13.322;2023-01-01T07:04:09;10.80;46.10
62904;DHT22;49000;50.698;13.322;2023-01-01T07:06:36;10.70;45.40
62904;DHT22;49000;50.698;13.322;2023-01-01T07:09:02;10.70;44.90
62904;DHT22;49000;50.698;13.322;2023-01-01T07:11:28;10.90;44.50
62904;DHT22;49000;50.698;13.322;2023-01-01T07:13:54;11.00;44.10
62904;DHT22;49000;50.698;13.322;2023-01-01T07:16:20;10.90;43.60
62904;DHT22;49000;50.698;13.322;2023-01-01T07:18:46;11.00;43.40
62904;DHT22;49000;50.698;13.322;2023-01-01T07:21:31;11.10;42.60
62904;DHT22;49000;50.698;13.322;2023-01-01T07:24:02;11.10;43.50
62904;DHT22;49000;50.698;13.322;2023-01-01T07:26:29;11.10;42.50
62904;DHT22;49000;50.698;13.322;2023-01-01T07:28:55;11.20;43.10
62904;DHT22;49000;50.698;13.322;2023-01-01T07:31:20;11.20;42.20
62904;DHT22;49000;50.698;13.322;2023-01-01T07:33:46;11.10;41.90
62904;DHT22;49000;50.698;13.322;2023-01-01T07:36:11;11.30;41.30
62904;DHT22;49000;50.698;13.322;2023-01-01T07:38:37;11.40;40.60
62904;DHT22;49000;50.698;13.322;2023-01-01T07:41:02;11.40;40.20
62904;DHT22;49000;50.698;13.322;2023-01-01T07:43:28;11.30;40.00
62904;DHT22;49000;50.698;13.322;2023-01-01T07:45:53;11.30;38.90
62904;DHT22;49000;50.698;13.322;2023-01-01T07:48:19;11.30;39.40
62904;DHT22;49000;50.698;13.322;2023-01-01T07:50:44;11.30;39.30
62904;DHT22;49000;50.698;13.322;2023-01-01T07:53:10;11.50;38.30
62904;DHT22;49000;50.698;13.322;2023-01-01T07:55:35;11.50;38.70
62904;DHT22;49000;50.698;13.322;2023-01-01T07:58:01;11.40;37.90
62904;DHT22;49000;50.698;13.322;2023-01-01T08:00:28;11.40;38.10
62904;DHT22;49000;50.698;13.322;2023-01-01T08:02:53;11.40;38.90
62904;DHT22;49000;50.698;13.322;2023-01-01T08:05:19;11.40;38.10
62904;DHT22;49000;50.698;13.322;2023-01-01T08:07:49;11.40;35.90
62904;DHT22;49000;50.698;13.322;2023-01-01T08:10:16;11.50;36.50
62904;DHT22;49000;50.698;13.322;2023-01-01T08:12:41;11.50;35.50
62904;DHT22;49000;50.698;13.322;2023-01-01T08:15:08;11.50;36.00
62904;DHT22;49000;50.698;13.322;2023-01-01T08:17:33;11.50;35.10
62904;DHT22;49000;50.698;13.322;2023-01-01T08:19:59;11.50;36.60
62904;DHT22;49000;50.698;13.322;2023-01-01T08:22:24;11.50;36.30
62904;DHT22;49000;50.698;13.322;2023-01-01T08:24:50;11.50;37.00
62904;DHT22;49000;50.698;13.322;2023-01-01T08:27:15;11.50;36.10
62904;DHT22;49000;50.698;13.322;2023-01-01T08:29:42;11.60;35.10
62904;DHT22;49000;50.698;13.322;2023-01-01T08:32:09;11.60;35.60
62904;DHT22;49000;50.698;13.322;2023-01-01T08:34:34;11.60;36.40
62904;DHT22;49000;50.698;13.322;2023-01-01T08:37:00;11.70;35.80
62904;DHT22;49000;50.698;13.322;2023-01-01T08:39:25;11.80;35.30
62904;DHT22;49000;50.698;13.322;2023-01-01T08:41:51;11.80;35.30
62904;DHT22;49000;50.698;13.322;2023-01-01T08:44:17;11.90;34.40
62904;DHT22;49000;50.698;13.322;2023-01-01T08:46:43;12.00;35.40
62904;DHT22;49000;50.698;13.322;2023-01-01T08:49:08;12.00;35.60
62904;DHT22;49000;50.698;13.322;2023-01-01T08:51:34;12.00;35.50
62904;DHT22;49000;50.698;13.322;2023-01-01T08:53:59;12.00;33.30
62904;DHT22;49000;50.698;13.322;2023-01-01T08:56:25;12.10;32.90
62904;DHT22;49000;50.698;13.322;2023-01-01T08:58:50;12.20;35.30
62904;DHT22;49000;50.698;13.322;2023-01-01T09:01:16;12.10;33.90
62904;DHT22;49000;50.698;13.322;2023-01-01T09:03:41;12.20;30.80
62904;DHT22;49000;50.698;13.322;2023-01-01T09:06:07;12.20;32.00
62904;DHT22;49000;50.698;13.322;2023-01-01T09:08:32;12.30;32.50
62904;DHT22;49000;50.698;13.322;2023-01-01T09:11:02;12.40;30.20
62904;DHT22;49000;50.698;13.322;2023-01-01T09:13:28;12.40;31.90
62904;DHT22;49000;50.698;13.322;2023-01-01T09:15:54;12.40;32.00
62904;DHT22;49000;50.698;13.322;2023-01-01T09:18:19;12.50;31.10
62904;DHT22;49000;50.698;13.322;2023-01-01T09:20:45;12.50;29.80
62904;DHT22;49000;50.698;13.322;2023-01-01T09:23:11;12.50;30.60
62904;DHT22;49000;50.698;13.322;2023-01-01T09:25:38;12.60;29.80
62904;DHT22;49000;50.698;13.322;2023-01-01T09:28:06;12.60;30.10
62904;DHT22;49000;50.698;13.322;2023-01-01T09:30:33;12.60;29.20
62904;DHT22;49000;50.698;13.322;2023-01-01T09:33:05;12.70;29.30
62904;DHT22;49000;50.698;13.322;2023-01-01T09:35:31;12.60;29.40
62904;DHT22;49000;50.698;13.322;2023-01-01T09:37:56;12.70;30.00
62904;DHT22;49000;50.698;13.322;2023-01-01T09:43:39;12.70;30.10
62904;DHT22;49000;50.698;13.322;2023-01-01T09:46:07;12.70;30.00
62904;DHT22;49000;50.698;13.322;2023-01-01T09:48:38;12.80;30.00
62904;DHT22;49000;50.698;13.322;2023-01-01T09:51:12;12.80;30.30
62904;DHT22;49000;50.698;13.322;2023-01-01T09:53:48;12.80;29.90
62904;DHT22;49000;50.698;13.322;2023-01-01T09:56:25;12.90;29.90
62904;DHT22;49000;50.698;13.322;2023-01-01T09:58:52;13.00;28.60
62904;DHT22;49000;50.698;13.322;2023-01-01T10:01:45;13.10;29.30
62904;DHT22;49000;50.698;13.322;2023-01-01T10:07:11;13.30;29.30
62904;DHT22;49000;50.698;13.322;2023-01-01T10:09:48;13.30;27.70
62904;DHT22;49000;50.698;13.322;2023-01-01T10:12:23;13.40;27.20
62904;DHT22;49000;50.698;13.322;2023-01-01T10:14:56;13.50;27.80
62904;DHT22;49000;50.698;13.322;2023-01-01T10:17:45;13.50;27.60
62904;DHT22;49000;50.698;13.322;2023-01-01T10:20:36;13.60;27.60
62904;DHT22;49000;50.698;13.322;2023-01-01T10:25:38;13.70;26.20
62904;DHT22;49000;50.698;13.322;2023-01-01T10:28:10;13.80;26.60
62904;DHT22;49000;50.698;13.322;2023-01-01T10:30:36;13.80;26.60
62904;DHT22;49000;50.698;13.322;2023-01-01T10:33:04;13.90;26.10
62904;DHT22;49000;50.698;13.322;2023-01-01T10:35:36;13.80;24.90
62904;DHT22;49000;50.698;13.322;2023-01-01T10:38:04;13.80;25.00
62904;DHT22;49000;50.698;13.322;2023-01-01T10:40:30;13.90;24.00
62904;DHT22;49000;50.698;13.322;2023-01-01T10:42:58;13.90;24.80
62904;DHT22;49000;50.698;13.322;2023-01-01T10:45:33;13.90;24.10
62904;DHT22;49000;50.698;13.322;2023-01-01T10:50:50;13.90;24.50
62904;DHT22;49000;50.698;13.322;2023-01-01T10:55:59;13.80;23.50
62904;DHT22;49000;50.698;13.322;2023-01-01T10:58:38;13.80;23.50
62904;DHT22;49000;50.698;13.322;2023-01-01T11:01:10;13.80;24.20
62904;DHT22;49000;50.698;13.322;2023-01-01T11:03:36;13.80;23.50
62904;DHT22;49000;50.698;13.322;2023-01-01T11:06:18;13.80;23.40
62904;DHT22;49000;50.698;13.322;2023-01-01T11:08:56;13.80;25.00
62904;DHT22;49000;50.698;13.322;2023-01-01T11:11:31;13.80;23.70
62904;DHT22;49000;50.698;13.322;2023-01-01T11:14:01;13.80;23.60
62904;DHT22;49000;50.698;13.322;2023-01-01T11:16:31;13.80;23.50
62904;DHT22;49000;50.698;13.322;2023-01-01T11:19:05;13.80;24.10
62904;DHT22;49000;50.698;13.322;2023-01-01T11:21:34;13.80;23.50
62904;DHT22;49000;50.698;13.322;2023-01-01T11:24:30;13.90;23.50
62904;DHT22;49000;50.698;13.322;2023-01-01T11:29:40;14.00;23.60
62904;DHT22;49000;50.698;13.322;2023-01-01T11:32:07;14.00;23.30
62904;DHT22;49000;50.698;13.322;2023-01-01T11:34:36;14.00;23.60
62904;DHT22;49000;50.698;13.322;2023-01-01T11:37:18;14.00;23.20
62904;DHT22;49000;50.698;13.322;2023-01-01T11:39:49;14.00;23.60
62904;DHT22;49000;50.698;13.322;2023-01-01T11:42:18;14.00;23.60
62904;DHT22;49000;50.698;13.322;2023-01-01T11:44:47;14.00;23.60
62904;DHT22;49000;50.698;13.322;2023-01-01T11:47:28;14.00;22.40
62904;DHT22;49000;50.698;13.322;2023-01-01T11:49:58;14.00;23.60
62904;DHT22;49000;50.698;13.322;2023-01-01T11:52:33;14.00;23.60
62904;DHT22;49000;50.698;13.322;2023-01-01T11:55:13;14.00;23.60
62904;DHT22;49000;50.698;13.322;2023-01-01T11:57:45;14.00;23.10
62904;DHT22;49000;50.698;13.322;2023-01-01T12:00:13;14.00;23.60
62904;DHT22;49000;50.698;13.322;2023-01-01T12:02:49;14.00;23.70
62904;DHT22;49000;50.698;13.322;2023-01-01T12:05:43;14.00;23.60
62904;DHT22;49000;50.698;13.322;2023-01-01T12:08:15;14.00;23.50
62904;DHT22;49000;50.698;13.322;2023-01-01T12:10:50;13.90;23.50
62904;DHT22;49000;50.698;13.322;2023-01-01T12:13:23;13.90;23.50
62904;DHT22;49000;50.698;13.322;2023-01-01T12:16:09;13.90;24.10
62904;DHT22;49000;50.698;13.322;2023-01-01T12:18:49;13.90;23.40
62904;DHT22;49000;50.698;13.322;2023-01-01T12:21:25;13.90;23.30
62904;DHT22;49000;50.698;13.322;2023-01-01T12:23:51;13.90;23.50
62904;DHT22;49000;50.698;13.322;2023-01-01T12:35:38;14.00;23.60
62904;DHT22;49000;50.698;13.322;2023-01-01T12:38:16;14.00;23.60
62904;DHT22;49000;50.698;13.322;2023-01-01T12:40:57;14.00;23.60
62904;DHT22;49000;50.698;13.322;2023-01-01T12:46:22;14.10;23.00
62904;DHT22;49000;50.698;13.322;2023-01-01T12:54:29;14.30;22.30
62904;DHT22;49000;50.698;13.322;2023-01-01T12:57:11;14.30;22.70
62904;DHT22;49000;50.698;13.322;2023-01-01T12:59:41;14.20;22.90
62904;DHT22;49000;50.698;13.322;2023-01-01T13:02:32;14.20;22.80
62904;DHT22;49000;50.698;13.322;2023-01-01T13:05:03;14.20;23.40
62904;DHT22;49000;50.698;13.322;2023-01-01T13:07:37;14.20;22.40
62904;DHT22;49000;50.698;13.322;2023-01-01T13:12:47;14.00;22.40
62904;DHT22;49000;50.698;13.322;2023-01-01T13:18:05;14.00;21.30
62904;DHT22;49000;50.698;13.322;2023-01-01T13:20:31;14.00;23.30
62904;DHT22;49000;50.698;13.322;2023-01-01T13:23:00;13.90;23.10
62904;DHT22;49000;50.698;13.322;2023-01-01T13:25:25;13.90;23.00
62904;DHT22;49000;50.698;13.322;2023-01-01T13:33:25;13.80;22.20
62904;DHT22;49000;50.698;13.322;2023-01-01T13:44:09;13.80;22.50
62904;DHT22;49000;50.698;13.322;2023-01-01T13:49:40;13.70;22.10
62904;DHT22;49000;50.698;13.322;2023-01-01T13:55:37;13.70;22.50
62904;DHT22;49000;50.698;13.322;2023-01-01T14:03:46;13.50;23.30
62904;DHT22;49000;50.698;13.322;2023-01-01T14:06:21;13.50;22.30
62904;DHT22;49000;50.698;13.322;2023-01-01T14:09:01;13.50;22.60
62904;DHT22;49000;50.698;13.322;2023-01-01T14:11:26;13.50;23.10
62904;DHT22;49000;50.698;13.322;2023-01-01T14:13:53;13.40;22.90
62904;DHT22;49000;50.698;13.322;2023-01-01T14:16:19;13.50;23.30
62904;DHT22;49000;50.698;13.322;2023-01-01T14:18:47;13.40;23.20
62904;DHT22;49000;50.698;13.322;2023-01-01T14:21:16;13.40;23.20
62904;DHT22;49000;50.698;13.322;2023-01-01T14:23:45;13.30;23.10
62904;DHT22;49000;50.698;13.322;2023-01-01T14:26:15;13.30;23.30
62904;DHT22;49000;50.698;13.322;2023-01-01T14:28:42;13.30;23.10
62904;DHT22;49000;50.698;13.322;2023-01-01T14:31:22;13.30;23.10
62904;DHT22;49000;50.698;13.322;2023-01-01T14:33:49;13.30;23.10
62904;DHT22;49000;50.698;13.322;2023-01-01T14:36:20;13.20;23.10
62904;DHT22;49000;50.698;13.322;2023-01-01T14:38:48;13.20;23.10
62904;DHT22;49000;50.698;13.322;2023-01-01T14:43:44;13.10;23.20
62904;DHT22;49000;50.698;13.322;2023-01-01T14:46:23;13.10;23.20
62904;DHT22;49000;50.698;13.322;2023-01-01T14:48:51;13.00;22.90
62904;DHT22;49000;50.698;13.322;2023-01-01T14:51:20;13.00;23.70
62904;DHT22;49000;50.698;13.322;2023-01-01T14:53:47;13.00;23.20
62904;DHT22;49000;50.698;13.322;2023-01-01T14:56:28;13.00;24.00
62904;DHT22;49000;50.698;13.322;2023-01-01T14:59:10;12.80;24.00
62904;DHT22;49000;50.698;13.322;2023-01-01T15:01:38;12.80;24.50
62904;DHT22;49000;50.698;13.322;2023-01-01T15:04:23;12.70;23.70
62904;DHT22;49000;50.698;13.322;2023-01-01T15:06:58;12.70;24.60
62904;DHT22;49000;50.698;13.322;2023-01-01T15:09:25;12.70;24.30
62904;DHT22;49000;50.698;13.322;2023-01-01T15:11:52;12.70;24.10
62904;DHT22;49000;50.698;13.322;2023-01-01T15:14:37;12.60;24.30
62904;DHT22;49000;50.698;13.322;2023-01-01T15:17:05;12.60;24.80
62904;DHT22;49000;50.698;13.322;2023-01-01T15:19:31;12.50;24.30
62904;DHT22;49000;50.698;13.322;2023-01-01T15:21:59;12.50;25.30
62904;DHT22;49000;50.698;13.322;2023-01-01T15:24:25;12.40;24.70
62904;DHT22;49000;50.698;13.322;2023-01-01T15:26:55;12.40;24.90
62904;DHT22;49000;50.698;13.322;2023-01-01T15:29:29;12.40;25.20
62904;DHT22;49000;50.698;13.322;2023-01-01T15:31:58;12.30;25.70
62904;DHT22;49000;50.698;13.322;2023-01-01T15:34:30;12.20;26.00
62904;DHT22;49000;50.698;13.322;2023-01-01T15:42:44;12.00;27.30
62904;DHT22;49000;50.698;13.322;2023-01-01T15:45:37;11.90;28.70
62904;DHT22;49000;50.698;13.322;2023-01-01T15:51:01;11.70;28.20
62904;DHT22;49000;50.698;13.322;2023-01-01T15:56:15;11.60;28.80
62904;DHT22;49000;50.698;13.322;2023-01-01T15:58:59;11.60;28.80
62904;DHT22;49000;50.698;13.322;2023-01-01T16:01:28;11.50;28.60
62904;DHT22;49000;50.698;13.322;2023-01-01T16:04:14;11.50;28.80
62904;DHT22;49000;50.698;13.322;2023-01-01T16:06:44;11.50;29.00
62904;DHT22;49000;50.698;13.322;2023-01-01T16:09:12;11.50;29.50
62904;DHT22;49000;50.698;13.322;2023-01-01T16:11:38;11.50;29.70
62904;DHT22;49000;50.698;13.322;2023-01-01T16:14:04;11.40;29.90
62904;DHT22;49000;50.698;13.322;2023-01-01T16:16:30;11.30;30.30
62904;DHT22;49000;50.698;13.322;2023-01-01T16:18:56;11.30;30.80
62904;DHT22;49000;50.698;13.322;2023-01-01T16:21:30;11.30;31.30
62904;DHT22;49000;50.698;13.322;2023-01-01T16:23:57;11.20;31.20
62904;DHT22;49000;50.698;13.322;2023-01-01T16:26:23;11.30;32.20
62904;DHT22;49000;50.698;13.322;2023-01-01T16:28:48;11.30;31.00
62904;DHT22;49000;50.698;13.322;2023-01-01T16:31:18;11.30;32.70
62904;DHT22;49000;50.698;13.322;2023-01-01T16:33:49;11.40;32.20
62904;DHT22;49000;50.698;13.322;2023-01-01T16:36:16;11.40;31.50
62904;DHT22;49000;50.698;13.322;2023-01-01T16:38:42;11.50;30.90
62904;DHT22;49000;50.698;13.322;2023-01-01T16:41:15;11.60;31.50
62904;DHT22;49000;50.698;13.322;2023-01-01T16:43:42;11.60;31.30
62904;DHT22;49000;50.698;13.322;2023-01-01T16:46:08;11.60;31.30
62904;DHT22;49000;50.698;13.322;2023-01-01T16:48:33;11.60;31.40
62904;DHT22;49000;50.698;13.322;2023-01-01T16:50:59;11.60;31.00
62904;DHT22;49000;50.698;13.322;2023-01-01T16:53:24;11.60;31.10
62904;DHT22;49000;50.698;13.322;2023-01-01T16:55:51;11.60;31.30
62904;DHT22;49000;50.698;13.322;2023-01-01T16:58:17;11.60;31.40
62904;DHT22;49000;50.698;13.322;2023-01-01T17:00:43;11.60;31.80
62904;DHT22;49000;50.698;13.322;2023-01-01T17:03:09;11.50;32.30
62904;DHT22;49000;50.698;13.322;2023-01-01T17:05:35;11.50;33.60
62904;DHT22;49000;50.698;13.322;2023-01-01T17:08:00;11.40;34.90
62904;DHT22;49000;50.698;13.322;2023-01-01T17:10:26;11.40;35.20
62904;DHT22;49000;50.698;13.322;2023-01-01T17:12:51;11.30;36.70
62904;DHT22;49000;50.698;13.322;2023-01-01T17:15:19;11.30;34.90
62904;DHT22;49000;50.698;13.322;2023-01-01T17:17:45;11.40;35.00